Terminal Aerodrome Forecast
Issued by NWS

Home | Current Version | Previous Version | Text Only | Print | Product List | Glossary On
Versions: 1 2 3 4 5 6 7 8 9 10 11 12 13 14 15 16 17
000
FTAK31 PAJN 181100
TAFAPG
TAF
PAPG 181134Z 1812/1912 VRB03KT 6SM BR SCT015 OVC035
     FM181500 11006KT P6SM -RA SCT015 OVC030
     FM181900 12010G18KT 4SM -RA BR BKN020 OVC035
     FM190000 12010KT 5SM -RA BR BKN030 OVC045
     FM190300 14008KT 5SM -RA BR BKN020 OVC045
     FM190700 14010KT 6SM -RA BR BKN035 OVC060
      AMD LTD TO CLD VIS AND WIND 1812/1815=

USA.gov is the U.S. government's official web portal to all federal, state and local government web resources and services.